Time;durP1;ratioP1;P1;durP2;ratioP2;P2;SDS_P1;SDS_P2;PMS_P1;PMS_P2;Temp;Humidity;BMP_temperature;BMP_pressure;BME280_temperature;BME280_humidity;BME280_pressure;Samples;Min_cycle;Max_cycle;Signal;HPM_P1;HPM_P2
2023/09/03 00:00:56;;;;;;;11.90;8.60;;;18.60;93.50;;;;;;5098847;28;20479;-82
2023/09/03 00:03:22;;;;;;;13.60;9.00;;;18.60;93.40;;;;;;5115750;28;20054;-82
2023/09/03 00:05:56;;;;;;;12.43;8.57;;;18.60;93.30;;;;;;5115830;28;20028;-82
2023/09/03 00:08:22;;;;;;;11.43;8.43;;;18.50;93.30;;;;;;5133741;28;20015;-82
2023/09/03 00:10:52;;;;;;;12.65;8.50;;;18.50;93.30;;;;;;5115663;28;20066;-82
2023/09/03 00:13:18;;;;;;;13.48;8.35;;;18.50;93.30;;;;;;5115625;28;20020;-82
2023/09/03 00:15:44;;;;;;;11.75;8.48;;;18.40;93.20;;;;;;5135648;28;20035;-82
2023/09/03 00:18:11;;;;;;;16.30;8.75;;;18.40;93.20;;;;;;5119302;28;20028;-82
2023/09/03 00:20:38;;;;;;;13.07;8.75;;;18.40;93.30;;;;;;5119487;28;20020;-82
2023/09/03 00:23:04;;;;;;;12.55;8.13;;;18.30;93.30;;;;;;5119296;28;20087;-82
2023/09/03 00:25:39;;;;;;;13.18;8.38;;;18.30;93.30;;;;;;5119306;28;20028;-82
2023/09/03 00:28:05;;;;;;;12.73;8.43;;;18.30;93.20;;;;;;5085935;28;20019;-82
2023/09/03 00:30:30;;;;;;;11.68;7.63;;;18.30;93.60;;;;;;5102344;28;20063;-82
2023/09/03 00:32:56;;;;;;;12.05;8.10;;;18.30;93.20;;;;;;5102250;28;20043;-83
2023/09/03 00:35:21;;;;;;;13.23;8.18;;;18.30;93.20;;;;;;5119067;28;20053;-82
2023/09/03 00:37:47;;;;;;;12.35;7.97;;;18.30;93.20;;;;;;5102236;28;20028;-82
2023/09/03 00:40:13;;;;;;;13.98;8.82;;;18.30;93.60;;;;;;5102029;28;20027;-82
2023/09/03 00:42:39;;;;;;;11.73;8.15;;;18.30;93.20;;;;;;5102082;28;20104;-83
2023/09/03 00:45:05;;;;;;;11.68;8.35;;;18.20;93.10;;;;;;5119201;28;20051;-82
2023/09/03 00:47:31;;;;;;;13.45;8.35;;;18.20;93.10;;;;;;5102189;28;20024;-83
2023/09/03 00:49:58;;;;;;;12.32;8.13;;;18.20;93.10;;;;;;5118950;28;20035;-83
2023/09/03 00:52:24;;;;;;;12.02;8.18;;;18.20;93.10;;;;;;5119075;28;20079;-82
2023/09/03 00:54:51;;;;;;;12.15;8.32;;;18.10;93.10;;;;;;5118479;28;20063;-82
2023/09/03 00:57:16;;;;;;;13.40;7.97;;;18.10;93.10;;;;;;5118715;28;20031;-82
2023/09/03 00:59:45;;;;;;;11.43;7.88;;;18.10;93.10;;;;;;5118622;28;20126;-82
2023/09/03 01:02:14;;;;;;;12.35;7.93;;;18.10;93.10;;;;;;5118644;28;20091;-82
2023/09/03 01:04:39;;;;;;;11.07;7.72;;;18.10;93.50;;;;;;5118480;28;20028;-81
2023/09/03 01:07:06;;;;;;;11.75;8.10;;;18.10;93.10;;;;;;5118599;28;20065;-82
2023/09/03 01:09:32;;;;;;;11.52;7.57;;;18.10;93.00;;;;;;5101754;28;20027;-82
2023/09/03 01:12:09;;;;;;;11.38;7.80;;;18.00;92.90;;;;;;5118429;28;20024;-83
2023/09/03 01:14:56;;;;;;;12.27;7.90;;;18.00;92.80;;;;;;5118430;28;20027;-83
2023/09/03 01:17:52;;;;;;;11.07;7.72;;;18.00;92.80;;;;;;5118296;28;20024;-83
2023/09/03 01:20:36;;;;;;;12.07;7.88;;;17.90;92.80;;;;;;5118507;28;20045;-82
2023/09/03 01:23:21;;;;;;;11.40;7.78;;;17.90;92.80;;;;;;5118186;28;20093;-82
2023/09/03 01:26:18;;;;;;;11.85;7.78;;;17.70;92.70;;;;;;5117945;28;20016;-82
2023/09/03 01:28:45;;;;;;;12.60;8.10;;;17.60;93.00;;;;;;5117990;28;20027;-82
2023/09/03 01:31:15;;;;;;;11.57;7.75;;;17.60;93.10;;;;;;5118145;28;20079;-82
2023/09/03 01:33:43;;;;;;;11.48;7.38;;;17.60;93.00;;;;;;5118021;28;20031;-82
2023/09/03 01:36:10;;;;;;;10.77;7.35;;;17.60;92.90;;;;;;5101269;28;20034;-83
2023/09/03 01:38:37;;;;;;;10.05;7.40;;;17.60;92.90;;;;;;5135968;28;20028;-83
2023/09/03 01:41:03;;;;;;;12.30;8.25;;;17.50;92.80;;;;;;5118082;28;20028;-82
2023/09/03 01:43:29;;;;;;;9.90;7.22;;;17.50;92.80;;;;;;5117669;28;20027;-81
2023/09/03 01:46:00;;;;;;;11.63;7.80;;;17.50;92.80;;;;;;5117787;28;20087;-80
2023/09/03 01:48:35;;;;;;;11.80;7.53;;;17.50;92.80;;;;;;5117713;28;20035;-82
2023/09/03 01:51:11;;;;;;;9.80;6.93;;;17.50;92.70;;;;;;5135648;28;20024;-82
2023/09/03 01:53:48;;;;;;;10.45;6.90;;;17.40;92.60;;;;;;5135645;28;20034;-81
2023/09/03 01:56:16;;;;;;;9.85;6.93;;;17.40;92.70;;;;;;5117035;28;20043;-81
2023/09/03 01:58:46;;;;;;;12.05;7.97;;;17.30;92.70;;;;;;5117420;28;20161;-82
2023/09/03 02:01:12;;;;;;;9.80;5.97;;;17.30;92.80;;;;;;5117605;28;20027;-82
2023/09/03 02:03:40;;;;;;;9.55;7.03;;;17.30;92.90;;;;;;5100356;28;20031;-82
2023/09/03 02:06:07;;;;;;;9.98;6.00;;;17.30;92.90;;;;;;5117557;28;20026;-83
2023/09/03 02:08:32;;;;;;;11.18;6.45;;;17.30;92.90;;;;;;5100459;28;20394;-83
2023/09/03 02:10:58;;;;;;;9.23;6.20;;;17.30;92.80;;;;;;5100459;28;20035;-82
2023/09/03 02:13:24;;;;;;;9.32;6.32;;;17.30;92.80;;;;;;5135284;28;20035;-82
2023/09/03 02:15:49;;;;;;;11.93;7.85;;;17.30;92.70;;;;;;5117286;28;20036;-82
2023/09/03 02:18:16;;;;;;;11.65;7.65;;;17.30;92.80;;;;;;5100380;28;20027;-82
2023/09/03 02:20:41;;;;;;;11.65;7.32;;;17.30;92.80;;;;;;5100396;28;20055;-81
2023/09/03 02:23:07;;;;;;;12.55;7.45;;;17.30;92.90;;;;;;5117086;28;20027;-82
2023/09/03 02:25:32;;;;;;;10.35;7.30;;;17.30;92.90;;;;;;5100111;28;20028;-82
2023/09/03 02:27:59;;;;;;;12.80;8.10;;;17.30;92.90;;;;;;5100145;28;20034;-82
2023/09/03 02:30:25;;;;;;;11.18;7.03;;;17.30;92.90;;;;;;5134944;28;20024;-82
2023/09/03 02:32:51;;;;;;;12.20;7.97;;;17.30;92.90;;;;;;5116841;28;20038;-82
2023/09/03 02:35:16;;;;;;;12.80;7.90;;;17.30;92.90;;;;;;5116931;28;20077;-82
2023/09/03 02:37:42;;;;;;;13.10;7.45;;;17.30;92.90;;;;;;5116651;28;20095;-83
2023/09/03 02:40:08;;;;;;;12.63;7.55;;;17.20;92.80;;;;;;5100004;28;20087;-82
2023/09/03 02:42:34;;;;;;;12.80;8.00;;;17.20;92.80;;;;;;5099741;28;20031;-83
2023/09/03 02:44:59;;;;;;;13.07;8.43;;;17.20;92.60;;;;;;5099664;28;20043;-83
2023/09/03 02:47:27;;;;;;;14.20;8.75;;;17.10;92.70;;;;;;5134686;28;20024;-83
2023/09/03 02:49:52;;;;;;;12.90;8.40;;;17.10;93.00;;;;;;5134577;28;20076;-83
2023/09/03 02:52:18;;;;;;;12.57;8.60;;;17.10;93.20;;;;;;5082899;28;20024;-82
2023/09/03 02:54:43;;;;;;;13.10;8.15;;;17.10;93.20;;;;;;5099593;28;20032;-83
2023/09/03 02:57:09;;;;;;;12.50;7.68;;;17.10;93.20;;;;;;5096142;28;20052;-83
2023/09/03 02:59:35;;;;;;;13.20;7.47;;;17.10;93.10;;;;;;5113249;28;20088;-83
2023/09/03 03:02:00;;;;;;;10.75;7.03;;;17.10;93.50;;;;;;5114208;28;20031;-83
2023/09/03 03:04:26;;;;;;;13.40;8.32;;;17.10;93.10;;;;;;5113985;28;20036;-84
2023/09/03 03:06:51;;;;;;;11.98;7.93;;;17.10;93.00;;;;;;5114015;28;20028;-83
2023/09/03 03:09:17;;;;;;;11.18;8.00;;;17.10;92.90;;;;;;5079579;28;20020;-82
2023/09/03 03:11:46;;;;;;;12.30;8.50;;;17.00;92.90;;;;;;5095989;28;20024;-83
2023/09/03 03:14:13;;;;;;;12.75;8.88;;;17.00;93.00;;;;;;5096568;28;20054;-83
2023/09/03 03:16:39;;;;;;;12.52;8.30;;;16.90;92.90;;;;;;5113793;28;20048;-82
2023/09/03 03:19:04;;;;;;;15.13;8.73;;;16.90;93.00;;;;;;5112757;28;20098;-82
2023/09/03 03:21:30;;;;;;;13.77;9.32;;;16.90;93.10;;;;;;5112614;28;20036;-82
2023/09/03 03:23:56;;;;;;;13.45;8.80;;;16.80;93.10;;;;;;5113616;28;20047;-81
2023/09/03 03:26:21;;;;;;;13.80;8.55;;;16.80;93.20;;;;;;5095730;28;20027;-82
2023/09/03 03:28:47;;;;;;;12.38;8.48;;;16.80;93.20;;;;;;5095849;28;20017;-82
2023/09/03 03:31:17;;;;;;;13.30;8.60;;;16.80;93.30;;;;;;5079075;28;20028;-83
2023/09/03 03:33:45;;;;;;;12.52;8.57;;;16.80;93.40;;;;;;5095926;28;20024;-82
2023/09/03 03:36:20;;;;;;;13.40;8.60;;;16.80;93.50;;;;;;5096072;28;20055;-83
2023/09/03 03:38:47;;;;;;;12.05;7.65;;;16.80;93.60;;;;;;5095815;28;20032;-83
2023/09/03 03:41:17;;;;;;;13.50;8.85;;;16.80;93.90;;;;;;5129537;28;20035;-83
2023/09/03 03:43:49;;;;;;;13.07;8.57;;;16.80;93.50;;;;;;5095293;28;20063;-82
2023/09/03 03:46:16;;;;;;;13.60;8.20;;;16.80;93.50;;;;;;5112565;28;20040;-83
2023/09/03 03:48:43;;;;;;;14.00;8.23;;;16.80;93.40;;;;;;5095526;28;20054;-82
2023/09/03 03:51:09;;;;;;;11.80;7.78;;;16.80;93.40;;;;;;5115303;28;20023;-83
2023/09/03 03:53:34;;;;;;;16.05;9.00;;;16.80;93.40;;;;;;5117576;28;20024;-82
2023/09/03 03:56:02;;;;;;;12.00;8.35;;;16.80;93.40;;;;;;5116442;28;20070;-83
2023/09/03 03:58:29;;;;;;;11.85;8.35;;;16.80;93.40;;;;;;5099771;28;20050;-83
2023/09/03 04:00:55;;;;;;;12.23;7.80;;;16.80;93.30;;;;;;5116473;28;20020;-83
2023/09/03 04:03:27;;;;;;;11.23;7.47;;;16.80;93.30;;;;;;5082663;28;20039;-82
2023/09/03 04:06:00;;;;;;;12.88;8.20;;;16.80;93.30;;;;;;5099854;28;20047;-82
2023/09/03 04:08:27;;;;;;;12.88;8.02;;;16.80;93.20;;;;;;5099602;28;20040;-82
2023/09/03 04:10:57;;;;;;;15.13;8.55;;;16.80;93.20;;;;;;5099414;28;20020;-83
2023/09/03 04:13:24;;;;;;;12.10;8.38;;;16.70;93.10;;;;;;5116278;28;20020;-83
2023/09/03 04:15:50;;;;;;;11.63;7.80;;;16.70;93.10;;;;;;5117181;28;20028;-82
2023/09/03 04:18:16;;;;;;;12.55;8.20;;;16.70;93.20;;;;;;5116098;28;20120;-82
2023/09/03 04:20:41;;;;;;;13.18;8.00;;;16.70;93.20;;;;;;5099231;28;20035;-83
2023/09/03 04:23:07;;;;;;;14.23;8.98;;;16.70;93.20;;;;;;5115842;28;20039;-83
2023/09/03 04:25:33;;;;;;;11.80;7.50;;;16.70;93.20;;;;;;5115925;28;20050;-83
2023/09/03 04:27:58;;;;;;;11.98;6.90;;;16.60;93.20;;;;;;5098974;28;20024;-83
2023/09/03 04:30:24;;;;;;;10.60;7.60;;;16.60;93.20;;;;;;5098877;28;20161;-83
2023/09/03 04:32:49;;;;;;;12.50;7.60;;;16.60;93.20;;;;;;5099056;28;20032;-84
2023/09/03 04:35:15;;;;;;;13.65;8.48;;;16.60;93.10;;;;;;5115716;28;20043;-83
2023/09/03 04:37:41;;;;;;;12.10;8.48;;;16.60;93.10;;;;;;5115744;28;20047;-82
2023/09/03 04:40:08;;;;;;;13.00;8.43;;;16.60;93.10;;;;;;5082123;28;20100;-83
2023/09/03 04:42:34;;;;;;;12.15;8.40;;;16.60;93.20;;;;;;5115735;28;20519;-83
2023/09/03 04:45:00;;;;;;;14.32;8.50;;;16.60;93.30;;;;;;5115514;28;20036;-83
2023/09/03 04:47:25;;;;;;;13.80;8.68;;;16.50;93.40;;;;;;5115645;28;20024;-83
2023/09/03 04:49:51;;;;;;;13.50;8.35;;;16.50;93.40;;;;;;5115595;28;20020;-82
2023/09/03 04:52:16;;;;;;;15.80;8.50;;;16.50;93.30;;;;;;5098649;28;20036;-81
2023/09/03 04:54:43;;;;;;;12.38;8.30;;;16.50;93.40;;;;;;5098442;28;20097;-82
2023/09/03 04:57:09;;;;;;;13.57;8.82;;;16.50;93.40;;;;;;5115247;28;20104;-83
2023/09/03 04:59:35;;;;;;;14.35;8.27;;;16.50;93.40;;;;;;5098415;28;20509;-83
2023/09/03 05:02:01;;;;;;;11.75;8.13;;;16.50;93.40;;;;;;5115056;28;20032;-83
2023/09/03 05:04:26;;;;;;;12.57;7.82;;;16.50;93.30;;;;;;5115022;28;20047;-83
2023/09/03 05:06:52;;;;;;;12.48;8.10;;;16.50;93.20;;;;;;5098382;28;20083;-83
2023/09/03 05:09:18;;;;;;;17.02;8.80;;;16.40;93.30;;;;;;5116107;28;20031;-83
2023/09/03 05:11:43;;;;;;;15.90;9.43;;;16.40;93.40;;;;;;5098250;28;20047;-83
2023/09/03 05:14:09;;;;;;;13.77;8.70;;;16.40;93.50;;;;;;5115248;28;20047;-82
2023/09/03 05:16:34;;;;;;;12.15;8.05;;;16.40;93.60;;;;;;5081519;28;20021;-83
2023/09/03 05:19:04;;;;;;;13.93;8.70;;;16.40;93.50;;;;;;5114996;28;20032;-84
2023/09/03 05:21:32;;;;;;;19.33;10.02;;;16.40;93.50;;;;;;5115225;28;20031;-83
2023/09/03 05:23:57;;;;;;;14.68;8.52;;;16.40;93.60;;;;;;5115945;28;20027;-83
2023/09/03 05:26:23;;;;;;;13.30;8.40;;;16.40;93.80;;;;;;5098081;28;20425;-83
2023/09/03 05:28:49;;;;;;;13.07;8.77;;;16.50;93.90;;;;;;5097887;28;20058;-84
2023/09/03 05:31:15;;;;;;;15.27;8.77;;;16.40;93.90;;;;;;5098097;28;20020;-83
2023/09/03 05:33:41;;;;;;;15.43;8.90;;;16.50;93.90;;;;;;5131805;28;20356;-82
2023/09/03 05:36:06;;;;;;;15.23;9.02;;;16.50;93.90;;;;;;5114701;28;20038;-81
2023/09/03 05:38:32;;;;;;;13.88;8.75;;;16.50;93.90;;;;;;5114630;28;20032;-83
2023/09/03 05:40:58;;;;;;;13.05;8.55;;;16.50;94.00;;;;;;5115502;28;20016;-83
2023/09/03 05:43:24;;;;;;;15.23;8.75;;;16.40;94.00;;;;;;5115571;28;20091;-83
2023/09/03 05:45:50;;;;;;;14.13;8.77;;;16.50;94.00;;;;;;5097816;28;20032;-84
2023/09/03 05:48:16;;;;;;;15.13;9.40;;;16.40;94.10;;;;;;5114476;28;20028;-85
2023/09/03 05:50:41;;;;;;;14.50;9.35;;;16.40;94.10;;;;;;5114709;28;20038;-84
2023/09/03 05:53:07;;;;;;;15.40;10.25;;;16.50;94.10;;;;;;5097574;28;20032;-83
2023/09/03 05:55:33;;;;;;;19.15;10.15;;;16.40;94.20;;;;;;5097233;28;20052;-83
2023/09/03 05:57:58;;;;;;;17.17;9.43;;;16.50;94.30;;;;;;5097487;28;20032;-83
2023/09/03 06:00:24;;;;;;;15.55;9.38;;;16.50;94.30;;;;;;5115457;28;20036;-83
2023/09/03 06:02:50;;;;;;;16.42;9.85;;;16.50;94.20;;;;;;5097412;28;20032;-83
2023/09/03 06:05:15;;;;;;;15.18;10.00;;;16.60;94.30;;;;;;5097110;28;20044;-82
2023/09/03 06:07:41;;;;;;;14.55;9.60;;;16.60;94.30;;;;;;5080394;28;20024;-81
2023/09/03 06:10:07;;;;;;;15.00;10.25;;;16.60;94.40;;;;;;5114025;28;20021;-82
2023/09/03 06:12:33;;;;;;;16.60;10.32;;;16.60;94.40;;;;;;5113200;28;20100;-83
2023/09/03 06:14:58;;;;;;;14.60;9.68;;;16.60;94.40;;;;;;5113936;28;20028;-82
2023/09/03 06:17:24;;;;;;;16.42;10.45;;;16.60;94.50;;;;;;5113840;28;20028;-81
2023/09/03 06:19:51;;;;;;;16.67;10.80;;;16.60;94.70;;;;;;5080289;28;20058;-83
2023/09/03 06:22:17;;;;;;;16.00;10.18;;;16.60;94.70;;;;;;5113838;28;20088;-82
2023/09/03 06:24:42;;;;;;;17.27;10.90;;;16.70;94.80;;;;;;5096593;28;20032;-82
2023/09/03 06:27:08;;;;;;;15.52;10.43;;;16.70;94.80;;;;;;5113720;28;20027;-83
2023/09/03 06:29:33;;;;;;;19.02;11.43;;;16.80;94.80;;;;;;5114529;28;20032;-83
2023/09/03 06:31:59;;;;;;;17.63;10.50;;;16.80;94.90;;;;;;5113803;28;20043;-83
2023/09/03 06:34:25;;;;;;;16.98;10.43;;;16.90;94.90;;;;;;5080070;28;20028;-83
2023/09/03 06:36:51;;;;;;;19.75;11.48;;;16.90;95.00;;;;;;5096743;28;20024;-84
2023/09/03 06:39:16;;;;;;;18.80;10.80;;;17.00;95.00;;;;;;5113578;28;20039;-84
2023/09/03 06:41:42;;;;;;;17.33;10.35;;;17.00;95.10;;;;;;5096867;28;20024;-84
2023/09/03 06:44:08;;;;;;;17.50;11.38;;;17.10;95.10;;;;;;5113500;28;20045;-84
2023/09/03 06:46:33;;;;;;;20.17;11.50;;;17.10;95.20;;;;;;5096486;28;20080;-83
2023/09/03 06:48:59;;;;;;;19.10;11.23;;;17.10;95.30;;;;;;5096405;28;20032;-83
2023/09/03 06:51:25;;;;;;;22.73;11.32;;;17.10;95.30;;;;;;5114331;28;20054;-85
2023/09/03 06:53:51;;;;;;;21.17;11.65;;;17.20;95.30;;;;;;5096564;28;20055;-84
2023/09/03 06:56:16;;;;;;;19.85;10.73;;;17.20;95.40;;;;;;5113300;28;20055;-83
2023/09/03 06:58:42;;;;;;;18.10;11.18;;;17.20;95.40;;;;;;5096421;28;20038;-81
2023/09/03 07:01:08;;;;;;;19.95;12.10;;;17.30;95.40;;;;;;5096514;28;20034;-84
2023/09/03 07:03:33;;;;;;;19.88;12.25;;;17.30;95.50;;;;;;5112974;28;20032;-83
2023/09/03 07:05:59;;;;;;;19.27;11.50;;;17.30;95.40;;;;;;5113514;28;20043;-86
2023/09/03 07:08:25;;;;;;;22.25;12.20;;;17.40;95.50;;;;;;5096350;28;20031;-80
2023/09/03 07:10:50;;;;;;;18.08;10.90;;;17.40;95.40;;;;;;5112860;28;20024;-87
2023/09/03 07:13:16;;;;;;;19.10;11.75;;;17.40;95.40;;;;;;5113320;28;20016;-86
2023/09/03 07:15:42;;;;;;;21.00;12.68;;;17.30;95.50;;;;;;5096655;28;20110;-85
2023/09/03 07:18:07;;;;;;;21.25;11.93;;;17.30;95.60;;;;;;5079476;28;20032;-84
2023/09/03 07:20:33;;;;;;;18.80;12.27;;;17.30;95.60;;;;;;5096434;28;20054;-86
2023/09/03 07:22:59;;;;;;;21.15;13.02;;;17.40;95.60;;;;;;5113312;28;20028;-86
2023/09/03 07:25:25;;;;;;;22.95;12.93;;;17.50;95.70;;;;;;5079833;28;20008;-85
2023/09/03 07:27:50;;;;;;;22.25;13.07;;;17.40;95.70;;;;;;5079947;28;20028;-88
2023/09/03 07:30:16;;;;;;;20.67;12.98;;;17.40;95.70;;;;;;5079692;28;20024;-88
2023/09/03 07:32:42;;;;;;;21.88;13.45;;;17.50;95.80;;;;;;5096475;28;20088;-87
2023/09/03 07:35:08;;;;;;;23.38;13.70;;;17.50;95.90;;;;;;5113380;28;20043;-89
2023/09/03 07:37:34;;;;;;;22.92;12.55;;;17.50;96.60;;;;;;5113003;28;20081;-85
2023/09/03 07:40:00;;;;;;;21.77;12.38;;;17.60;96.10;;;;;;5112731;28;20099;-80
2023/09/03 07:42:25;;;;;;;23.13;12.65;;;17.60;96.10;;;;;;5095603;28;20032;-82
2023/09/03 07:44:52;;;;;;;23.52;12.93;;;17.70;96.10;;;;;;5079069;28;20027;-82
2023/09/03 07:47:17;;;;;;;22.55;12.75;;;17.80;96.00;;;;;;5112761;28;20028;-83
2023/09/03 07:49:43;;;;;;;21.23;13.25;;;17.80;96.20;;;;;;5095964;28;20040;-83
2023/09/03 07:52:11;;;;;;;21.95;13.10;;;17.90;96.20;;;;;;5079099;28;20031;-85
2023/09/03 07:54:37;;;;;;;21.77;13.63;;;17.90;96.30;;;;;;5079746;28;20016;-84
2023/09/03 07:57:02;;;;;;;20.40;12.45;;;17.90;96.30;;;;;;5095665;28;20055;-84
2023/09/03 07:59:28;;;;;;;22.95;13.68;;;18.00;96.20;;;;;;5078994;28;20028;-85
2023/09/03 08:01:54;;;;;;;24.77;13.85;;;18.00;96.10;;;;;;5095742;28;20036;-84
2023/09/03 08:04:19;;;;;;;21.10;12.40;;;18.00;96.00;;;;;;5112650;28;20029;-85
2023/09/03 08:06:45;;;;;;;23.40;14.32;;;18.00;96.10;;;;;;5095668;28;20031;-84
2023/09/03 08:09:10;;;;;;;22.92;12.60;;;18.10;96.30;;;;;;5112655;28;20017;-84
2023/09/03 08:11:36;;;;;;;22.00;13.25;;;18.20;96.30;;;;;;5112353;28;20495;-82
2023/09/03 08:14:02;;;;;;;24.70;14.18;;;18.30;96.20;;;;;;5078884;28;20020;-84
2023/09/03 08:16:28;;;;;;;27.73;14.35;;;18.30;96.10;;;;;;5095477;28;20027;-83
2023/09/03 08:18:53;;;;;;;25.50;14.40;;;18.40;96.10;;;;;;5112522;28;20058;-84
2023/09/03 08:21:19;;;;;;;22.52;13.52;;;18.50;96.00;;;;;;5078898;28;20059;-83
2023/09/03 08:23:44;;;;;;;23.85;13.52;;;18.50;95.90;;;;;;5095457;28;20040;-82
2023/09/03 08:26:10;;;;;;;23.08;13.77;;;18.60;95.90;;;;;;5095634;28;20049;-84
2023/09/03 08:28:36;;;;;;;19.88;12.23;;;18.70;95.90;;;;;;5078826;28;20051;-84
2023/09/03 08:31:03;;;;;;;21.50;14.07;;;18.80;95.90;;;;;;5095446;28;20017;-83
2023/09/03 08:33:28;;;;;;;23.55;14.38;;;18.90;96.30;;;;;;5112209;28;20099;-82
2023/09/03 08:35:54;;;;;;;22.70;13.45;;;18.90;95.70;;;;;;5095967;28;20029;-84
2023/09/03 08:38:19;;;;;;;21.80;14.02;;;19.00;95.70;;;;;;5115996;28;20024;-84
2023/09/03 08:40:45;;;;;;;23.00;13.95;;;19.10;95.70;;;;;;5115951;28;20038;-84
2023/09/03 08:43:14;;;;;;;22.73;13.68;;;19.10;95.70;;;;;;5099021;28;20020;-84
2023/09/03 08:45:59;;;;;;;21.73;13.77;;;19.20;95.70;;;;;;5115769;28;20039;-83
2023/09/03 08:48:24;;;;;;;21.13;13.68;;;19.30;95.70;;;;;;5115936;28;20023;-84
2023/09/03 08:50:51;;;;;;;22.23;13.52;;;19.40;95.70;;;;;;5098832;28;20020;-83
2023/09/03 08:53:17;;;;;;;21.25;13.52;;;19.50;95.70;;;;;;5116621;28;20025;-83
2023/09/03 08:55:43;;;;;;;22.20;14.10;;;19.60;95.60;;;;;;5098704;28;20048;-83
2023/09/03 08:58:09;;;;;;;22.55;14.48;;;19.70;95.50;;;;;;5115500;28;20024;-83
2023/09/03 09:00:36;;;;;;;21.50;13.63;;;19.70;95.40;;;;;;5115600;28;20032;-82
2023/09/03 09:03:06;;;;;;;21.42;13.63;;;19.70;95.10;;;;;;5098546;28;20043;-83
2023/09/03 09:05:33;;;;;;;19.60;12.52;;;19.80;95.20;;;;;;5115331;28;20028;-83
2023/09/03 09:08:01;;;;;;;21.90;13.63;;;19.90;95.10;;;;;;5115284;28;20031;-83
2023/09/03 09:10:32;;;;;;;22.92;12.48;;;20.00;95.00;;;;;;5115436;28;20017;-83
2023/09/03 09:13:04;;;;;;;24.27;13.95;;;20.10;94.70;;;;;;5115335;28;20375;-84
2023/09/03 09:15:29;;;;;;;;;;;20.20;94.60;;;;;;5115661;28;20032;-83
2023/09/03 09:17:55;;;;;;;17.65;12.02;;;20.20;94.60;;;;;;5098642;28;19915;-83
2023/09/03 09:20:21;;;;;;;18.63;12.45;;;20.30;94.60;;;;;;5116491;28;20040;-85
2023/09/03 09:22:49;;;;;;;17.77;12.32;;;20.40;94.50;;;;;;5098896;28;20028;-85
2023/09/03 09:25:23;;;;;;;18.35;12.98;;;20.50;94.30;;;;;;5115321;28;20020;-84
2023/09/03 09:27:49;;;;;;;18.95;12.52;;;20.60;94.10;;;;;;5115186;28;20024;-84
2023/09/03 09:30:19;;;;;;;18.38;12.40;;;20.70;93.80;;;;;;5116326;28;20031;-83
2023/09/03 09:32:46;;;;;;;19.63;12.63;;;20.70;93.70;;;;;;5116199;28;20016;-83
2023/09/03 09:35:23;;;;;;;19.45;12.23;;;20.80;93.70;;;;;;5115675;28;20020;-84
2023/09/03 09:37:49;;;;;;;17.50;12.00;;;20.90;92.70;;;;;;5115761;28;20027;-84
2023/09/03 09:40:25;;;;;;;13.15;8.38;;;20.90;92.80;;;;;;5114807;28;20024;-84
2023/09/03 09:42:53;;;;;;;8.30;6.13;;;20.90;91.80;;;;;;5114736;28;20031;-84
2023/09/03 09:45:19;;;;;;;8.10;5.30;;;21.00;91.70;;;;;;5131665;28;20020;-84
2023/09/03 09:47:46;;;;;;;8.93;6.65;;;21.00;91.40;;;;;;5096705;28;20096;-84
2023/09/03 09:50:12;;;;;;;14.23;8.70;;;21.10;91.20;;;;;;5115475;28;20026;-84
2023/09/03 09:52:38;;;;;;;11.18;7.32;;;21.20;91.10;;;;;;5115453;28;20024;-84
2023/09/03 09:55:05;;;;;;;13.95;9.25;;;21.20;90.60;;;;;;5114975;28;20117;-83
2023/09/03 09:57:31;;;;;;;14.27;9.00;;;21.20;89.70;;;;;;5118241;28;20047;-85
2023/09/03 10:00:01;;;;;;;14.52;9.00;;;21.20;90.10;;;;;;5136284;28;20043;-83
2023/09/03 10:02:27;;;;;;;11.82;8.15;;;21.20;89.80;;;;;;5118261;28;20026;-83
2023/09/03 10:04:54;;;;;;;16.55;9.50;;;21.30;90.40;;;;;;5084601;28;20057;-86
2023/09/03 10:07:20;;;;;;;13.02;8.70;;;21.40;90.60;;;;;;5118008;28;20027;-87
2023/09/03 10:09:46;;;;;;;14.55;8.93;;;21.40;90.50;;;;;;5118405;28;20030;-82
2023/09/03 10:12:13;;;;;;;12.60;8.50;;;21.40;90.00;;;;;;5100909;28;20019;-83
2023/09/03 10:14:39;;;;;;;11.00;8.10;;;21.50;90.30;;;;;;5117453;28;20099;-83
2023/09/03 10:17:10;;;;;;;11.93;7.53;;;21.50;90.20;;;;;;5117473;28;20042;-85
2023/09/03 10:19:53;;;;;;;11.35;7.35;;;21.60;90.40;;;;;;5117471;28;20035;-84
2023/09/03 10:22:23;;;;;;;9.77;7.25;;;21.70;89.60;;;;;;5117501;28;20035;-84
2023/09/03 10:24:54;;;;;;;12.02;7.45;;;21.70;89.00;;;;;;5117517;28;20028;-84
2023/09/03 10:27:25;;;;;;;11.05;7.07;;;21.80;87.80;;;;;;5117365;28;20111;-84
2023/09/03 10:29:56;;;;;;;11.80;7.53;;;21.80;89.10;;;;;;5135403;28;20046;-84
2023/09/03 10:32:23;;;;;;;10.48;7.32;;;21.90;89.80;;;;;;5135417;28;20048;-86
2023/09/03 10:34:48;;;;;;;11.00;6.88;;;22.10;89.80;;;;;;5117228;28;20026;-84
2023/09/03 10:37:14;;;;;;;11.60;7.38;;;22.20;88.80;;;;;;5100360;28;20051;-84
2023/09/03 10:39:42;;;;;;;10.43;6.53;;;22.30;88.90;;;;;;5100140;28;20053;-84
2023/09/03 10:42:23;;;;;;;8.57;6.18;;;22.30;88.60;;;;;;5135122;28;20131;-84
2023/09/03 10:44:54;;;;;;;11.40;6.57;;;22.50;88.10;;;;;;5134818;28;20035;-84
2023/09/03 10:47:20;;;;;;;11.68;6.78;;;22.50;88.50;;;;;;5116958;28;20024;-84
2023/09/03 10:49:48;;;;;;;11.38;6.80;;;22.60;88.80;;;;;;5116953;28;20020;-84
2023/09/03 10:52:26;;;;;;;10.23;7.07;;;22.60;88.40;;;;;;5117034;28;20019;-84
2023/09/03 10:55:19;;;;;;;11.38;6.80;;;22.70;85.30;;;;;;5116842;28;20053;-84
2023/09/03 10:58:09;;;;;;;7.47;5.47;;;22.60;85.90;;;;;;5116739;28;20024;-84
2023/09/03 11:00:35;;;;;;;8.98;5.80;;;22.60;86.90;;;;;;5134471;28;20027;-84
2023/09/03 11:03:17;;;;;;;10.57;5.88;;;22.60;86.50;;;;;;5099941;28;20065;-83
2023/09/03 11:06:17;;;;;;;8.48;5.68;;;22.60;83.50;;;;;;5116633;28;20094;-84
2023/09/03 11:08:43;;;;;;;7.40;5.15;;;22.60;84.50;;;;;;5134642;28;20039;-84
2023/09/03 11:11:10;;;;;;;8.77;5.05;;;22.50;85.50;;;;;;5099651;28;20031;-83
2023/09/03 11:13:36;;;;;;;11.38;6.32;;;22.60;85.80;;;;;;5099363;28;20027;-82
2023/09/03 11:16:02;;;;;;;7.10;4.97;;;22.60;85.20;;;;;;5116305;28;20020;-82
2023/09/03 11:18:28;;;;;;;6.63;5.05;;;22.60;84.80;;;;;;5098749;28;20051;-82
2023/09/03 11:20:58;;;;;;;8.88;5.80;;;22.60;84.70;;;;;;5134252;28;20024;-82
2023/09/03 11:23:24;;;;;;;11.07;6.35;;;22.60;82.10;;;;;;5134436;28;20027;-82
2023/09/03 11:25:50;;;;;;;8.88;5.50;;;22.50;83.90;;;;;;5082511;28;20543;-82
2023/09/03 11:28:16;;;;;;;7.43;4.95;;;22.50;85.30;;;;;;5116129;28;20039;-82
2023/09/03 11:31:03;;;;;;;7.90;5.10;;;22.50;83.30;;;;;;5134263;28;20031;-82
2023/09/03 11:33:28;;;;;;;6.78;4.30;;;22.70;84.50;;;;;;5099451;28;20024;-83
2023/09/03 11:35:55;;;;;;;4.63;3.35;;;22.70;85.00;;;;;;5099707;28;20027;-83
2023/09/03 11:38:25;;;;;;;5.63;4.20;;;22.80;84.10;;;;;;5116360;28;20038;-87
2023/09/03 11:40:56;;;;;;;4.70;3.30;;;22.90;82.50;;;;;;5116437;28;20016;-83
2023/09/03 11:43:22;;;;;;;5.35;3.08;;;22.90;81.90;;;;;;5134009;28;20051;-83
2023/09/03 11:45:48;;;;;;;6.10;2.88;;;23.00;83.20;;;;;;5116469;28;20024;-87
2023/09/03 11:48:13;;;;;;;3.25;2.22;;;23.00;82.70;;;;;;5116692;28;20016;-84
2023/09/03 11:50:39;;;;;;;4.28;2.78;;;23.10;82.60;;;;;;5099265;28;20038;-84
2023/09/03 11:53:05;;;;;;;3.75;3.03;;;23.10;82.00;;;;;;5099199;28;20024;-85
2023/09/03 11:55:36;;;;;;;4.65;2.58;;;23.10;80.90;;;;;;5099029;28;20055;-84
2023/09/03 11:58:04;;;;;;;2.97;1.88;;;23.20;81.10;;;;;;5116233;28;20039;-87
2023/09/03 12:00:31;;;;;;;2.70;1.80;;;23.20;80.10;;;;;;5115824;28;20072;-82
2023/09/03 12:02:58;;;;;;;2.45;1.95;;;23.20;79.30;;;;;;5115792;28;20047;-84
2023/09/03 12:05:26;;;;;;;3.33;2.00;;;23.20;77.50;;;;;;5082422;28;20027;-84
2023/09/03 12:07:52;;;;;;;3.13;2.50;;;23.30;76.40;;;;;;5116346;28;20011;-83
2023/09/03 12:10:19;;;;;;;3.25;2.08;;;23.20;73.40;;;;;;5115845;28;20024;-80
2023/09/03 12:12:45;;;;;;;2.42;1.92;;;23.20;74.70;;;;;;5137494;28;20024;-81
2023/09/03 12:15:21;;;;;;;3.20;1.90;;;23.10;73.60;;;;;;5102677;28;20024;-82
2023/09/03 12:17:48;;;;;;;4.43;2.70;;;23.10;75.40;;;;;;5102668;28;20036;-82
2023/09/03 12:20:34;;;;;;;4.60;2.70;;;23.20;76.60;;;;;;5085828;28;20028;-82
2023/09/03 12:23:11;;;;;;;3.58;3.08;;;23.30;77.30;;;;;;5102436;28;20028;-81
2023/09/03 12:25:37;;;;;;;5.18;3.05;;;23.50;75.50;;;;;;5137528;28;20079;-82
2023/09/03 12:28:04;;;;;;;3.25;2.50;;;23.40;76.00;;;;;;5102363;28;20034;-82
2023/09/03 12:30:57;;;;;;;5.10;3.05;;;23.50;77.80;;;;;;5137475;28;20190;-82
2023/09/03 12:33:42;;;;;;;3.45;2.83;;;23.60;76.70;;;;;;5137330;28;20053;-82
2023/09/03 12:36:09;;;;;;;4.57;3.03;;;23.60;76.60;;;;;;5137299;28;20044;-82
2023/09/03 12:38:54;;;;;;;4.63;2.58;;;23.50;77.10;;;;;;5119149;28;20085;-82